createdAt,value
2023-05-10T00:01:00.738Z,5.18
2023-05-10T00:03:27.169Z,5.25
2023-05-10T00:05:53.540Z,5.00
2023-05-10T00:08:19.876Z,5.28
2023-05-10T00:10:46.302Z,4.93
2023-05-10T00:13:12.835Z,5.70
2023-05-10T00:15:39.265Z,5.50
2023-05-10T00:18:05.769Z,5.05
2023-05-10T00:20:32.228Z,5.20
2023-05-10T00:22:58.630Z,5.63
2023-05-10T00:25:24.989Z,5.80
2023-05-10T00:27:51.324Z,5.53
2023-05-10T00:30:17.864Z,5.40
2023-05-10T00:32:44.402Z,5.82
2023-05-10T00:35:11.215Z,5.93
2023-05-10T00:37:37.578Z,5.80
2023-05-10T00:40:04.233Z,5.60
2023-05-10T00:42:30.570Z,6.00
2023-05-10T00:44:56.901Z,6.97
2023-05-10T00:47:23.598Z,6.60
2023-05-10T00:49:50.462Z,6.40
2023-05-10T00:52:16.865Z,7.05
2023-05-10T00:54:43.359Z,6.53
2023-05-10T00:57:09.767Z,6.97
2023-05-10T00:59:36.335Z,7.00
2023-05-10T01:02:02.760Z,6.90
2023-05-10T01:04:29.435Z,7.40
2023-05-10T01:06:55.848Z,7.20
2023-05-10T01:09:23.121Z,7.50
2023-05-10T01:11:50.256Z,7.55
2023-05-10T01:14:19.642Z,7.63
2023-05-10T01:16:48.011Z,7.22
2023-05-10T01:19:29.936Z,7.65
2023-05-10T01:22:11.257Z,7.65
2023-05-10T01:24:56.351Z,8.20
2023-05-10T01:28:01.658Z,7.47
2023-05-10T01:31:01.794Z,7.65
2023-05-10T01:33:36.135Z,8.88
2023-05-10T01:36:31.366Z,8.15
2023-05-10T01:39:16.124Z,8.38
2023-05-10T01:41:51.745Z,7.18
2023-05-10T01:44:26.992Z,8.43
2023-05-10T01:46:59.317Z,8.70
2023-05-10T01:49:29.904Z,8.32
2023-05-10T01:52:04.873Z,10.32
2023-05-10T01:54:34.317Z,9.52
2023-05-10T01:57:06.268Z,10.20
2023-05-10T01:59:37.644Z,10.52
2023-05-10T02:02:06.422Z,10.98
2023-05-10T02:04:36.149Z,10.63
2023-05-10T02:07:03.165Z,11.40
2023-05-10T02:09:32.902Z,12.35
2023-05-10T02:12:02.418Z,11.55
2023-05-10T02:14:31.451Z,11.45
2023-05-10T02:16:59.536Z,12.00
2023-05-10T02:19:28.746Z,11.73
2023-05-10T02:21:56.849Z,11.88
2023-05-10T02:24:26.051Z,10.57
2023-05-10T02:26:56.022Z,12.18
2023-05-10T02:29:25.936Z,10.98
2023-05-10T02:31:54.221Z,13.48
2023-05-10T02:34:23.173Z,13.82
2023-05-10T02:36:51.748Z,13.70
2023-05-10T02:39:20.488Z,14.27
2023-05-10T02:41:49.121Z,13.30
2023-05-10T02:44:16.570Z,12.32
2023-05-10T02:46:43.022Z,12.27
2023-05-10T02:49:09.455Z,13.82
2023-05-10T02:51:38.231Z,13.95
2023-05-10T02:54:30.247Z,15.93
2023-05-10T02:56:59.286Z,16.35
2023-05-10T02:59:25.728Z,16.73
2023-05-10T03:01:52.191Z,17.55
2023-05-10T03:04:18.699Z,16.95
2023-05-10T03:06:45.723Z,16.85
2023-05-10T03:09:13.452Z,16.48
2023-05-10T03:11:45.501Z,17.77
2023-05-10T03:16:48.091Z,18.23
2023-05-10T03:19:55.932Z,17.35
2023-05-10T03:22:39.402Z,17.65
2023-05-10T03:25:08.636Z,18.33
2023-05-10T03:27:37.189Z,19.80
2023-05-10T03:30:04.044Z,20.58
2023-05-10T03:32:30.670Z,20.48
2023-05-10T03:34:57.008Z,21.20
2023-05-10T03:37:23.334Z,20.63
2023-05-10T03:39:49.641Z,19.63
2023-05-10T03:42:16.008Z,20.50
2023-05-10T03:44:42.479Z,21.67
2023-05-10T03:47:09.136Z,21.35
2023-05-10T03:49:35.591Z,20.23
2023-05-10T03:52:02.073Z,21.05
2023-05-10T03:54:28.512Z,20.70
2023-05-10T03:56:54.871Z,20.83
2023-05-10T03:59:21.258Z,20.77
2023-05-10T04:01:47.692Z,20.83
2023-05-10T04:04:14.077Z,21.73
2023-05-10T04:06:40.570Z,21.50
2023-05-10T04:09:06.954Z,20.98
2023-05-10T04:11:33.309Z,22.48
2023-05-10T04:13:59.619Z,22.35
2023-05-10T04:16:25.906Z,23.02
2023-05-10T04:18:52.242Z,22.58
2023-05-10T04:21:18.749Z,22.42
2023-05-10T04:23:45.065Z,22.20
2023-05-10T04:26:11.506Z,21.45
2023-05-10T04:28:37.825Z,21.60
2023-05-10T04:31:09.930Z,20.63
2023-05-10T04:33:37.265Z,21.00
2023-05-10T04:36:04.472Z,21.05
2023-05-10T04:38:30.847Z,21.45
2023-05-10T04:41:10.585Z,20.13
2023-05-10T04:43:38.222Z,18.23
2023-05-10T04:46:05.750Z,20.25
2023-05-10T04:48:32.332Z,19.25
2023-05-10T04:50:58.670Z,18.80
2023-05-10T04:53:25.124Z,19.05
2023-05-10T04:55:51.541Z,18.63
2023-05-10T04:58:17.965Z,19.38
2023-05-10T05:00:44.284Z,19.13
2023-05-10T05:03:10.760Z,17.88
2023-05-10T05:05:37.134Z,19.15
2023-05-10T05:08:03.731Z,17.88
2023-05-10T05:10:31.111Z,17.52
2023-05-10T05:12:57.515Z,18.65
2023-05-10T05:15:23.992Z,17.50
2023-05-10T05:17:50.395Z,19.02
2023-05-10T05:20:17.121Z,18.60
2023-05-10T05:22:43.811Z,20.02
2023-05-10T05:25:10.176Z,19.83
2023-05-10T05:27:36.482Z,20.23
2023-05-10T05:30:02.963Z,19.58
2023-05-10T05:32:29.418Z,20.60
2023-05-10T05:34:55.784Z,21.63
2023-05-10T05:37:22.166Z,20.83
2023-05-10T05:39:48.821Z,21.10
2023-05-10T05:42:15.367Z,19.30
2023-05-10T05:44:41.759Z,19.65
2023-05-10T05:47:08.068Z,19.83
2023-05-10T05:49:34.517Z,19.15
2023-05-10T05:52:04.534Z,19.85
2023-05-10T05:54:32.418Z,18.85
2023-05-10T05:57:01.216Z,20.02
2023-05-10T05:59:28.971Z,17.73
2023-05-10T06:01:55.635Z,18.38
2023-05-10T06:04:22.165Z,19.20
2023-05-10T06:06:48.632Z,17.15
2023-05-10T06:09:14.981Z,15.98
2023-05-10T06:11:41.384Z,16.88
2023-05-10T06:14:07.754Z,17.02
2023-05-10T06:16:35.314Z,16.17
2023-05-10T06:19:01.957Z,16.27
2023-05-10T06:21:28.310Z,17.30
2023-05-10T06:23:54.715Z,16.67
2023-05-10T06:26:21.074Z,18.35
2023-05-10T06:28:47.489Z,18.45
2023-05-10T06:31:13.900Z,16.60
2023-05-10T06:33:40.272Z,18.85
2023-05-10T06:36:06.713Z,18.40
2023-05-10T06:38:33.114Z,18.85
2023-05-10T06:40:59.486Z,18.30
2023-05-10T06:43:25.824Z,18.23
2023-05-10T06:45:52.225Z,18.70
2023-05-10T06:48:18.685Z,17.85
2023-05-10T06:50:45.158Z,17.85
2023-05-10T06:53:11.607Z,19.10
2023-05-10T06:55:37.980Z,20.23
2023-05-10T06:58:04.352Z,18.70
2023-05-10T07:00:30.747Z,18.98
2023-05-10T07:02:57.155Z,18.98
2023-05-10T07:05:23.639Z,19.17
2023-05-10T07:07:50.061Z,20.75
2023-05-10T07:10:16.453Z,18.70
2023-05-10T07:12:43.019Z,18.95
2023-05-10T07:15:10.040Z,19.33
2023-05-10T07:17:36.450Z,18.20
2023-05-10T07:20:03.131Z,17.38
2023-05-10T07:22:29.484Z,17.88
2023-05-10T07:24:55.805Z,17.13
2023-05-10T07:27:22.135Z,18.77
2023-05-10T07:29:48.479Z,16.55
2023-05-10T07:32:14.869Z,16.92
2023-05-10T07:34:41.249Z,16.73
2023-05-10T07:37:07.641Z,16.63
2023-05-10T07:39:33.994Z,15.50
2023-05-10T07:42:00.355Z,16.25
2023-05-10T07:44:26.714Z,16.30
2023-05-10T07:46:53.074Z,15.43
2023-05-10T07:49:19.447Z,14.43
2023-05-10T07:51:45.797Z,14.18
2023-05-10T07:54:12.237Z,15.18
2023-05-10T07:56:38.664Z,14.30
2023-05-10T07:59:05.121Z,12.10
2023-05-10T08:01:32.735Z,11.20
2023-05-10T08:03:59.127Z,11.88
2023-05-10T08:06:25.577Z,10.88
2023-05-10T08:08:51.885Z,10.23
2023-05-10T08:11:18.438Z,10.55
2023-05-10T08:13:45.805Z,9.60
2023-05-10T08:16:12.273Z,10.13
2023-05-10T08:18:39.093Z,8.88
2023-05-10T08:21:05.714Z,9.55
2023-05-10T08:23:32.278Z,9.00
2023-05-10T08:25:58.614Z,9.77
2023-05-10T08:28:24.959Z,8.48
2023-05-10T08:30:51.759Z,8.27
2023-05-10T08:33:19.107Z,9.68
2023-05-10T08:35:45.514Z,8.70
2023-05-10T08:38:11.997Z,8.45
2023-05-10T08:40:38.673Z,8.60
2023-05-10T08:43:08.755Z,8.27
2023-05-10T08:45:39.400Z,8.32
2023-05-10T08:48:10.442Z,7.97
2023-05-10T08:50:38.411Z,7.45
2023-05-10T08:53:11.853Z,7.88
2023-05-10T08:55:38.568Z,7.32
2023-05-10T08:58:08.079Z,7.50
2023-05-10T09:00:35.063Z,14.15
2023-05-10T09:03:02.565Z,7.55
2023-05-10T09:05:29.085Z,10.75
2023-05-10T09:07:55.490Z,7.22
2023-05-10T09:10:22.346Z,4.85
2023-05-10T09:12:49.572Z,6.30
2023-05-10T09:15:17.096Z,4.93
2023-05-10T09:17:45.341Z,5.68
2023-05-10T09:20:11.852Z,5.05
2023-05-10T09:22:38.248Z,4.97
2023-05-10T09:25:12.623Z,5.15
2023-05-10T09:27:46.073Z,5.20
2023-05-10T09:30:17.838Z,5.25
2023-05-10T09:32:46.273Z,5.15
2023-05-10T09:35:20.622Z,5.00
2023-05-10T09:37:48.714Z,4.93
2023-05-10T09:40:20.285Z,4.40
2023-05-10T09:43:00.755Z,4.43
2023-05-10T09:45:29.307Z,4.20
2023-05-10T09:47:56.452Z,3.83
2023-05-10T09:50:23.416Z,3.85
2023-05-10T09:53:01.702Z,4.10
2023-05-10T09:55:41.124Z,3.45
2023-05-10T09:58:08.256Z,4.00
2023-05-10T10:00:39.986Z,3.30
2023-05-10T10:03:06.910Z,4.00
2023-05-10T10:05:35.622Z,3.88
2023-05-10T10:08:04.534Z,3.42
2023-05-10T10:10:33.577Z,3.67
2023-05-10T10:13:00.444Z,3.95
2023-05-10T10:15:27.304Z,4.35
2023-05-10T10:17:54.487Z,3.72
2023-05-10T10:20:22.299Z,4.18
2023-05-10T10:22:49.139Z,3.85
2023-05-10T10:25:18.134Z,4.13
2023-05-10T10:27:53.933Z,3.88
2023-05-10T10:30:40.353Z,4.32
2023-05-10T10:33:28.732Z,3.85
2023-05-10T10:35:58.842Z,4.47
2023-05-10T10:38:25.260Z,4.10
2023-05-10T10:41:10.561Z,3.75
2023-05-10T10:43:36.926Z,3.50
2023-05-10T10:46:16.547Z,3.95
2023-05-10T10:48:48.652Z,4.25
2023-05-10T10:51:15.249Z,3.92
2023-05-10T10:53:41.924Z,3.72
2023-05-10T10:56:13.312Z,3.70
2023-05-10T10:58:40.363Z,3.72
2023-05-10T11:01:15.625Z,4.35
2023-05-10T11:03:55.919Z,4.35
2023-05-10T11:06:32.975Z,3.80
2023-05-10T11:09:00.042Z,4.28
2023-05-10T11:11:26.542Z,4.03
2023-05-10T11:13:52.909Z,4.20
2023-05-10T11:16:24.389Z,4.47
2023-05-10T11:19:10.182Z,4.60
2023-05-10T11:21:49.886Z,4.20
2023-05-10T11:24:21.903Z,4.32
2023-05-10T11:26:51.345Z,4.00
2023-05-10T11:29:18.006Z,4.43
2023-05-10T11:31:45.048Z,3.90
2023-05-10T11:34:11.963Z,3.90
2023-05-10T11:36:38.433Z,3.50
2023-05-10T11:39:05.935Z,3.72
2023-05-10T11:41:32.756Z,3.95
2023-05-10T11:43:59.395Z,4.10
2023-05-10T11:46:28.394Z,3.90
2023-05-10T11:49:01.864Z,4.10
2023-05-10T11:51:28.381Z,3.40
2023-05-10T11:53:56.126Z,3.60
2023-05-10T11:56:23.123Z,2.95
2023-05-10T11:58:55.352Z,3.20
2023-05-10T12:01:22.825Z,4.22
2023-05-10T12:03:50.442Z,3.10
2023-05-10T12:06:18.968Z,3.35
2023-05-10T12:08:46.991Z,3.40
2023-05-10T12:11:13.995Z,3.60
2023-05-10T12:13:41.523Z,3.20
2023-05-10T12:16:21.427Z,3.13
2023-05-10T12:18:57.811Z,3.30
2023-05-10T12:21:24.746Z,3.40
2023-05-10T12:23:53.141Z,4.10
2023-05-10T12:26:22.675Z,3.30
2023-05-10T12:28:49.034Z,3.05
2023-05-10T12:31:15.379Z,2.83
2023-05-10T12:33:45.768Z,3.53
2023-05-10T12:36:14.168Z,3.65
2023-05-10T12:38:42.450Z,3.35
2023-05-10T12:41:10.990Z,4.00
2023-05-10T12:43:37.988Z,3.65
2023-05-10T12:46:11.470Z,3.45
2023-05-10T12:48:39.029Z,3.65
2023-05-10T12:51:06.507Z,3.50
2023-05-10T12:53:32.880Z,3.17
2023-05-10T12:55:59.200Z,3.45
2023-05-10T12:58:34.917Z,3.75
2023-05-10T13:01:03.485Z,3.40
2023-05-10T13:03:29.997Z,3.70
2023-05-10T13:05:56.280Z,3.25
2023-05-10T13:08:22.617Z,3.75
2023-05-10T13:10:49.391Z,3.70
2023-05-10T13:13:16.434Z,3.40
2023-05-10T13:15:42.776Z,3.50
2023-05-10T13:18:09.255Z,3.67
2023-05-10T13:20:35.630Z,3.60
2023-05-10T13:23:01.916Z,3.60
2023-05-10T13:25:28.234Z,3.70
2023-05-10T13:27:54.546Z,4.10
2023-05-10T13:30:20.829Z,3.95
2023-05-10T13:32:47.135Z,4.00
2023-05-10T13:35:13.545Z,4.10
2023-05-10T13:37:39.858Z,3.60
2023-05-10T13:40:06.830Z,3.92
2023-05-10T13:42:33.154Z,3.63
2023-05-10T13:44:59.502Z,4.10
2023-05-10T13:47:25.812Z,3.50
2023-05-10T13:49:52.120Z,3.95
2023-05-10T13:52:18.402Z,4.03
2023-05-10T13:54:44.696Z,4.10
2023-05-10T13:57:11.013Z,3.80
2023-05-10T13:59:37.293Z,4.25
2023-05-10T14:02:03.674Z,3.97
2023-05-10T14:04:30.491Z,4.30
2023-05-10T14:06:56.817Z,4.40
2023-05-10T14:09:23.112Z,4.13
2023-05-10T14:11:49.379Z,4.25
2023-05-10T14:14:15.715Z,4.40
2023-05-10T14:16:45.605Z,3.88
2023-05-10T14:19:12.217Z,4.20
2023-05-10T14:21:38.661Z,4.22
2023-05-10T14:24:05.310Z,5.05
2023-05-10T14:26:31.659Z,4.70
2023-05-10T14:28:58.037Z,4.85
2023-05-10T14:31:24.406Z,5.30
2023-05-10T14:33:50.757Z,5.28
2023-05-10T14:36:18.848Z,4.47
2023-05-10T14:38:45.144Z,5.03
2023-05-10T14:41:12.007Z,5.55
2023-05-10T14:43:38.318Z,5.35
2023-05-10T14:46:04.658Z,5.10
2023-05-10T14:48:30.964Z,5.25
2023-05-10T14:50:57.241Z,4.85
2023-05-10T14:53:23.526Z,5.20
2023-05-10T14:55:49.819Z,5.68
2023-05-10T14:58:16.113Z,5.35
2023-05-10T15:00:42.406Z,5.28
2023-05-10T15:03:09.299Z,6.00
2023-05-10T15:05:35.984Z,5.55
2023-05-10T15:08:02.623Z,5.90
2023-05-10T15:10:28.947Z,5.72
2023-05-10T15:12:55.249Z,5.35
2023-05-10T15:15:21.806Z,4.60
2023-05-10T15:17:49.019Z,5.28
2023-05-10T15:20:15.428Z,4.57
2023-05-10T15:22:41.704Z,5.13
2023-05-10T15:25:08.418Z,4.85
2023-05-10T15:27:34.703Z,4.40
2023-05-10T15:30:01.011Z,4.65
2023-05-10T15:32:27.478Z,4.20
2023-05-10T15:34:53.797Z,4.40
2023-05-10T15:37:20.148Z,4.07
2023-05-10T15:39:51.814Z,4.60
2023-05-10T15:42:19.185Z,4.65
2023-05-10T15:44:45.541Z,4.60
2023-05-10T15:47:11.861Z,4.68
2023-05-10T15:49:38.198Z,4.72
2023-05-10T15:52:04.758Z,5.53
2023-05-10T15:54:31.097Z,5.40
2023-05-10T15:56:57.425Z,4.88
2023-05-10T15:59:23.774Z,5.20
2023-05-10T16:01:50.141Z,5.45
2023-05-10T16:04:16.487Z,4.95
2023-05-10T16:06:42.800Z,5.13
2023-05-10T16:09:09.217Z,5.35
2023-05-10T16:11:35.606Z,5.25
2023-05-10T16:14:01.990Z,5.50
2023-05-10T16:16:28.496Z,5.72
2023-05-10T16:18:56.013Z,5.15
2023-05-10T16:21:22.637Z,5.85
2023-05-10T16:23:49.431Z,5.50
2023-05-10T16:26:15.879Z,4.88
2023-05-10T16:28:42.194Z,5.55
2023-05-10T16:31:08.833Z,5.47
2023-05-10T16:33:35.197Z,5.82
2023-05-10T16:36:01.509Z,5.32
2023-05-10T16:38:27.856Z,5.68
2023-05-10T16:40:54.173Z,5.72
2023-05-10T16:43:20.462Z,6.20
2023-05-10T16:45:46.829Z,6.10
2023-05-10T16:48:13.220Z,7.15
2023-05-10T16:50:43.359Z,7.20
2023-05-10T16:53:09.859Z,7.50
2023-05-10T16:55:36.193Z,6.40
2023-05-10T16:58:02.678Z,7.63
2023-05-10T17:00:29.433Z,6.93
2023-05-10T17:02:56.006Z,8.15
2023-05-10T17:05:22.944Z,6.88
2023-05-10T17:07:49.291Z,6.68
2023-05-10T17:10:16.410Z,7.80
2023-05-10T17:12:43.190Z,7.20
2023-05-10T17:15:10.081Z,7.00
2023-05-10T17:17:36.489Z,7.78
2023-05-10T17:20:03.072Z,7.55
2023-05-10T17:22:29.359Z,7.43
2023-05-10T17:24:55.653Z,7.53
2023-05-10T17:27:21.999Z,7.38
2023-05-10T17:29:48.309Z,8.07
2023-05-10T17:32:14.684Z,7.03
2023-05-10T17:34:40.967Z,6.88
2023-05-10T17:37:09.141Z,7.50
2023-05-10T17:39:35.593Z,7.72
2023-05-10T17:42:02.276Z,6.97
2023-05-10T17:44:28.625Z,6.50
2023-05-10T17:46:55.013Z,6.78
2023-05-10T17:49:21.357Z,6.43
2023-05-10T17:51:47.707Z,6.78
2023-05-10T17:54:14.953Z,6.57
2023-05-10T17:56:41.730Z,7.63
2023-05-10T17:59:08.153Z,7.63
2023-05-10T18:01:34.620Z,7.10
2023-05-10T18:04:00.995Z,7.53
2023-05-10T18:06:27.370Z,7.63
2023-05-10T18:08:53.697Z,7.53
2023-05-10T18:11:20.060Z,7.20
2023-05-10T18:13:46.376Z,7.60
2023-05-10T18:16:12.897Z,7.13
2023-05-10T18:18:39.464Z,7.28
2023-05-10T18:21:05.803Z,7.60
2023-05-10T18:23:32.213Z,7.97
2023-05-10T18:25:58.575Z,7.78
2023-05-10T18:28:24.911Z,7.90
2023-05-10T18:30:51.390Z,7.80
2023-05-10T18:33:17.799Z,7.53
2023-05-10T18:35:44.174Z,7.63
2023-05-10T18:38:10.748Z,6.93
2023-05-10T18:40:37.125Z,7.05
2023-05-10T18:43:03.479Z,7.38
2023-05-10T18:45:29.922Z,7.00
2023-05-10T18:47:56.392Z,6.93
2023-05-10T18:50:22.841Z,7.70
2023-05-10T18:52:49.156Z,7.65
2023-05-10T18:55:15.722Z,7.35
2023-05-10T18:57:42.377Z,8.18
2023-05-10T19:00:10.304Z,7.32
2023-05-10T19:02:37.613Z,7.65
2023-05-10T19:05:04.375Z,8.38
2023-05-10T19:07:30.759Z,7.88
2023-05-10T19:09:57.100Z,7.75
2023-05-10T19:12:23.537Z,7.75
2023-05-10T19:14:49.868Z,6.88
2023-05-10T19:17:16.899Z,6.55
2023-05-10T19:19:43.382Z,7.38
2023-05-10T19:22:10.190Z,7.25
2023-05-10T19:24:37.254Z,7.78
2023-05-10T19:27:03.874Z,7.82
2023-05-10T19:29:30.262Z,7.35
2023-05-10T19:31:56.585Z,7.18
2023-05-10T19:34:22.909Z,6.45
2023-05-10T19:36:49.811Z,6.60
2023-05-10T19:39:16.127Z,6.38
2023-05-10T19:41:42.504Z,6.28
2023-05-10T19:44:08.842Z,5.80
2023-05-10T19:46:35.180Z,6.63
2023-05-10T19:49:01.574Z,7.75
2023-05-10T19:51:27.946Z,7.60
2023-05-10T19:53:54.258Z,6.60
2023-05-10T19:56:20.613Z,9.32
2023-05-10T19:58:46.940Z,17.10
2023-05-10T20:01:13.317Z,8.73
2023-05-10T20:03:39.679Z,7.32
2023-05-10T20:06:06.133Z,6.65
2023-05-10T20:08:32.515Z,6.10
2023-05-10T20:10:58.800Z,6.00
2023-05-10T20:13:25.187Z,5.82
2023-05-10T20:15:55.763Z,4.63
2023-05-10T20:18:22.578Z,3.90
2023-05-10T20:20:53.468Z,4.28
2023-05-10T20:23:19.872Z,4.05
2023-05-10T20:25:46.240Z,3.92
2023-05-10T20:28:12.560Z,4.28
2023-05-10T20:30:38.947Z,4.68
2023-05-10T20:33:05.307Z,5.65
2023-05-10T20:35:31.743Z,5.35
2023-05-10T20:37:58.131Z,5.78
2023-05-10T20:40:24.489Z,6.03
2023-05-10T20:42:50.830Z,6.30
2023-05-10T20:45:17.237Z,5.47
2023-05-10T20:47:43.579Z,6.07
2023-05-10T20:50:10.174Z,5.95
2023-05-10T20:52:36.504Z,6.03
2023-05-10T20:55:02.859Z,5.90
2023-05-10T20:57:29.227Z,6.30
2023-05-10T20:59:55.517Z,6.60
2023-05-10T21:02:21.853Z,6.38
2023-05-10T21:04:48.284Z,6.63
2023-05-10T21:07:14.688Z,5.80
2023-05-10T21:09:41.076Z,6.40
2023-05-10T21:12:10.071Z,5.70
2023-05-10T21:14:36.400Z,5.72
2023-05-10T21:17:02.785Z,6.40
2023-05-10T21:19:29.111Z,5.97
2023-05-10T21:21:55.427Z,5.63
2023-05-10T21:24:22.374Z,5.93
2023-05-10T21:26:48.859Z,6.45
2023-05-10T21:29:15.231Z,6.30
2023-05-10T21:31:41.719Z,7.18
2023-05-10T21:34:08.021Z,7.88
2023-05-10T21:36:34.358Z,7.82
2023-05-10T21:39:00.684Z,6.38
2023-05-10T21:41:27.045Z,5.88
2023-05-10T21:43:53.374Z,5.88
2023-05-10T21:46:19.872Z,6.38
2023-05-10T21:48:46.304Z,5.97
2023-05-10T21:51:12.702Z,7.13
2023-05-10T21:53:39.102Z,6.30
2023-05-10T21:56:05.781Z,5.20
2023-05-10T21:58:32.241Z,5.95
2023-05-10T22:00:58.617Z,5.80
2023-05-10T22:03:25.081Z,5.93
2023-05-10T22:05:51.504Z,5.60
2023-05-10T22:08:17.929Z,4.80
2023-05-10T22:10:44.356Z,4.95
2023-05-10T22:13:10.687Z,4.15
2023-05-10T22:15:37.022Z,4.10
2023-05-10T22:18:03.474Z,3.80
2023-05-10T22:20:29.883Z,3.45
2023-05-10T22:22:56.229Z,3.83
2023-05-10T22:25:22.698Z,6.75
2023-05-10T22:27:49.142Z,4.32
2023-05-10T22:30:15.909Z,4.30
2023-05-10T22:32:42.458Z,4.93
2023-05-10T22:35:09.035Z,4.82
2023-05-10T22:37:35.358Z,4.68
2023-05-10T22:40:01.728Z,3.97
2023-05-10T22:42:28.030Z,3.22
2023-05-10T22:44:54.321Z,3.55
2023-05-10T22:47:20.632Z,3.88
2023-05-10T22:49:46.968Z,4.10
2023-05-10T22:52:13.285Z,3.15
2023-05-10T22:54:39.641Z,4.40
2023-05-10T22:57:06.054Z,7.18
2023-05-10T22:59:32.575Z,8.10
2023-05-10T23:01:59.013Z,7.00
2023-05-10T23:04:25.564Z,7.05
2023-05-10T23:06:51.911Z,6.65
2023-05-10T23:09:18.216Z,6.72
2023-05-10T23:11:44.553Z,7.10
2023-05-10T23:14:10.882Z,8.27
2023-05-10T23:16:37.203Z,8.73
2023-05-10T23:19:03.691Z,9.02
2023-05-10T23:21:32.018Z,9.98
2023-05-10T23:23:58.745Z,8.80
2023-05-10T23:26:25.134Z,7.50
2023-05-10T23:28:51.490Z,7.28
2023-05-10T23:31:17.841Z,6.75
2023-05-10T23:33:44.236Z,6.57
2023-05-10T23:36:10.584Z,7.10
2023-05-10T23:38:38.293Z,7.70
2023-05-10T23:41:04.628Z,7.10
2023-05-10T23:43:31.018Z,7.03
2023-05-10T23:45:58.311Z,5.65
2023-05-10T23:48:24.931Z,7.43
2023-05-10T23:50:51.286Z,7.00
2023-05-10T23:53:17.631Z,7.68
2023-05-10T23:55:44.056Z,8.00
2023-05-10T23:58:10.433Z,7.20
